createdAt,value
2018-01-12T00:01:09.675Z,58.38
2018-01-12T00:03:40.240Z,62.20
2018-01-12T00:06:10.648Z,52.20
2018-01-12T00:08:41.348Z,49.92
2018-01-12T00:11:11.832Z,60.20
2018-01-12T00:13:42.316Z,54.80
2018-01-12T00:16:13.495Z,53.40
2018-01-12T00:18:44.026Z,52.58
2018-01-12T00:21:14.549Z,51.80
2018-01-12T00:23:45.492Z,54.20
2018-01-12T00:26:16.107Z,48.93
2018-01-12T00:28:46.948Z,48.30
2018-01-12T00:31:17.571Z,43.83
2018-01-12T00:33:48.091Z,43.63
2018-01-12T00:36:18.920Z,45.28
2018-01-12T00:38:50.756Z,42.50
2018-01-12T00:41:22.881Z,46.60
2018-01-12T00:43:53.633Z,45.83
2018-01-12T00:46:24.337Z,57.35
2018-01-12T00:48:55.150Z,53.67
2018-01-12T00:51:25.507Z,48.63
2018-01-12T00:53:56.028Z,51.08
2018-01-12T00:56:26.610Z,44.58
2018-01-12T00:58:57.389Z,33.45
2018-01-12T01:01:28.053Z,31.05
2018-01-12T01:03:58.463Z,30.23
2018-01-12T01:06:29.188Z,29.85
2018-01-12T01:09:00.056Z,29.12
2018-01-12T01:11:31.694Z,26.55
2018-01-12T01:14:02.335Z,28.80
2018-01-12T01:16:32.731Z,26.42
2018-01-12T01:19:04.108Z,27.52
2018-01-12T01:21:34.861Z,28.00
2018-01-12T01:24:05.366Z,24.85
2018-01-12T01:26:36.180Z,25.08
2018-01-12T01:29:06.606Z,24.83
2018-01-12T01:31:37.037Z,25.23
2018-01-12T01:34:08.489Z,25.08
2018-01-12T01:36:38.806Z,23.35
2018-01-12T01:39:10.196Z,30.83
2018-01-12T01:41:40.982Z,29.30
2018-01-12T01:44:11.438Z,23.42
2018-01-12T01:46:42.153Z,24.12
2018-01-12T01:49:12.770Z,29.55
2018-01-12T01:51:43.493Z,24.92
2018-01-12T01:54:14.330Z,25.77
2018-01-12T01:56:44.685Z,26.67
2018-01-12T01:59:15.453Z,23.97
2018-01-12T02:01:45.952Z,27.35
2018-01-12T02:04:16.533Z,28.30
2018-01-12T02:06:47.277Z,23.30
2018-01-12T02:09:18.030Z,27.00
2018-01-12T02:11:48.710Z,22.90
2018-01-12T02:14:20.079Z,24.37
2018-01-12T02:16:50.591Z,24.50
2018-01-12T02:19:20.933Z,24.92
2018-01-12T02:21:51.770Z,22.90
2018-01-12T02:24:22.712Z,25.00
2018-01-12T02:26:53.480Z,23.48
2018-01-12T02:29:23.635Z,26.87
2018-01-12T02:31:54.014Z,23.73
2018-01-12T02:34:24.771Z,21.45
2018-01-12T02:36:55.880Z,23.93
2018-01-12T02:39:26.473Z,23.08
2018-01-12T02:41:57.544Z,22.98
2018-01-12T02:44:28.286Z,23.63
2018-01-12T02:46:58.770Z,22.52
2018-01-12T02:49:29.506Z,23.87
2018-01-12T02:52:00.156Z,26.37
2018-01-12T02:54:30.594Z,28.20
2018-01-12T02:57:01.086Z,25.67
2018-01-12T02:59:31.750Z,25.02
2018-01-12T03:02:03.025Z,25.77
2018-01-12T03:04:33.620Z,26.50
2018-01-12T03:07:04.147Z,25.60
2018-01-12T03:09:34.944Z,28.65
2018-01-12T03:12:05.659Z,27.48
2018-01-12T03:14:36.203Z,29.52
2018-01-12T03:17:07.385Z,30.12
2018-01-12T03:19:37.812Z,30.48
2018-01-12T03:22:15.861Z,30.50
2018-01-12T03:24:46.668Z,31.27
2018-01-12T03:27:17.659Z,27.60
2018-01-12T03:29:48.329Z,29.87
2018-01-12T03:32:19.745Z,29.17
2018-01-12T03:34:50.914Z,30.88
2018-01-12T03:37:21.787Z,30.17
2018-01-12T03:39:53.151Z,28.73
2018-01-12T03:42:23.419Z,31.20
2018-01-12T03:44:55.313Z,31.80
2018-01-12T03:47:26.299Z,32.30
2018-01-12T03:49:57.063Z,31.67
2018-01-12T03:52:28.276Z,32.83
2018-01-12T03:54:58.616Z,36.45
2018-01-12T03:57:29.187Z,35.92
2018-01-12T04:00:00.202Z,36.08
2018-01-12T04:02:30.902Z,39.40
2018-01-12T04:05:02.818Z,38.45
2018-01-12T04:07:33.526Z,35.17
2018-01-12T04:10:04.619Z,34.00
2018-01-12T04:12:35.566Z,37.30
2018-01-12T04:15:06.424Z,27.23
2018-01-12T04:17:36.957Z,29.90
2018-01-12T04:20:07.289Z,26.62
2018-01-12T04:22:38.496Z,25.67
2018-01-12T04:25:09.915Z,21.77
2018-01-12T04:27:40.509Z,22.48
2018-01-12T04:30:11.411Z,24.55
2018-01-12T04:32:42.061Z,20.02
2018-01-12T04:35:12.446Z,18.90
2018-01-12T04:37:43.245Z,22.45
2018-01-12T04:40:14.227Z,20.50
2018-01-12T04:42:48.068Z,18.20
2018-01-12T04:45:18.472Z,19.70
2018-01-12T04:47:49.834Z,27.73
2018-01-12T04:50:28.018Z,26.17
2018-01-12T04:53:00.955Z,28.12
2018-01-12T04:55:32.294Z,28.17
2018-01-12T04:58:02.936Z,33.63
2018-01-12T05:00:34.195Z,31.50
2018-01-12T05:03:05.571Z,29.63
2018-01-12T05:05:37.232Z,29.00
2018-01-12T05:08:08.183Z,31.00
2018-01-12T05:10:39.784Z,27.33
2018-01-12T05:13:11.741Z,28.67
2018-01-12T05:15:43.088Z,29.83
2018-01-12T05:18:14.626Z,26.95
2018-01-12T05:20:47.070Z,27.10
2018-01-12T05:23:17.647Z,29.00
2018-01-12T05:25:48.685Z,27.60
2018-01-12T05:28:19.771Z,26.60
2018-01-12T05:31:15.959Z,28.48
2018-01-12T05:33:48.800Z,29.63
2018-01-12T05:36:20.000Z,29.70
2018-01-12T05:38:56.190Z,30.67
2018-01-12T05:41:32.843Z,29.25
2018-01-12T05:44:03.534Z,29.33
2018-01-12T05:46:35.016Z,27.17
2018-01-12T05:49:08.614Z,27.23
2018-01-12T05:51:40.338Z,30.53
2018-01-12T05:54:11.696Z,29.85
2018-01-12T05:56:43.259Z,26.30
2018-01-12T05:59:15.827Z,30.62
2018-01-12T06:03:59.557Z,26.42
2018-01-12T06:06:30.496Z,27.10
2018-01-12T06:09:02.575Z,28.90
2018-01-12T06:11:32.928Z,28.52
2018-01-12T06:14:03.567Z,25.80
2018-01-12T06:16:38.714Z,27.70
2018-01-12T06:19:16.425Z,27.77
2018-01-12T06:21:46.699Z,25.00
2018-01-12T06:25:00.988Z,25.58
2018-01-12T06:27:34.803Z,25.40
2018-01-12T06:30:10.737Z,24.48
2018-01-12T06:32:45.475Z,25.30
2018-01-12T06:35:27.478Z,22.23
2018-01-12T06:41:29.543Z,24.45
2018-01-12T06:44:05.983Z,21.50
2018-01-12T06:46:38.076Z,21.75
2018-01-12T06:49:26.397Z,20.37
2018-01-12T06:52:00.292Z,23.23
2018-01-12T06:54:31.579Z,22.63
2018-01-12T06:57:02.690Z,21.27
2018-01-12T06:59:33.540Z,21.33
2018-01-12T07:02:04.592Z,22.08
2018-01-12T07:04:37.127Z,22.30
2018-01-12T07:10:10.311Z,20.87
2018-01-12T07:12:49.180Z,19.52
2018-01-12T07:15:20.159Z,22.70
2018-01-12T07:17:52.393Z,22.67
2018-01-12T07:20:52.757Z,24.70
2018-01-12T07:23:34.334Z,24.37
2018-01-12T07:26:05.808Z,21.12
2018-01-12T07:28:38.600Z,24.85
2018-01-12T07:31:10.824Z,22.15
2018-01-12T07:33:54.893Z,22.87
2018-01-12T07:36:31.567Z,21.98
2018-01-12T07:39:02.266Z,23.95
2018-01-12T07:41:33.856Z,23.52
2018-01-12T07:44:07.338Z,21.35
2018-01-12T07:46:38.186Z,30.70
2018-01-12T07:49:09.682Z,25.42
2018-01-12T07:51:41.386Z,21.00
2018-01-12T07:54:12.169Z,18.90
2018-01-12T07:56:46.668Z,21.30
2018-01-12T07:59:18.287Z,20.33
2018-01-12T08:01:52.734Z,22.77
2018-01-12T08:04:23.428Z,24.50
2018-01-12T08:06:55.783Z,21.25
2018-01-12T08:09:26.904Z,20.23
2018-01-12T08:11:58.867Z,23.35
2018-01-12T08:14:29.941Z,22.40
2018-01-12T08:17:00.767Z,19.60
2018-01-12T08:19:31.709Z,26.20
2018-01-12T08:22:02.687Z,23.02
2018-01-12T08:24:34.064Z,22.10
2018-01-12T08:27:07.432Z,22.33
2018-01-12T08:29:41.092Z,23.08
2018-01-12T08:32:12.592Z,23.87
2018-01-12T08:34:43.449Z,21.23
2018-01-12T08:37:21.269Z,21.92
2018-01-12T08:40:11.629Z,22.17
2018-01-12T08:42:45.687Z,25.30
2018-01-12T08:45:22.943Z,20.65
2018-01-12T08:47:53.524Z,18.80
2018-01-12T08:50:24.795Z,23.00
2018-01-12T08:52:55.349Z,18.00
2018-01-12T08:55:30.649Z,17.58
2018-01-12T08:58:01.544Z,16.40
2018-01-12T09:00:33.202Z,17.23
2018-01-12T09:03:04.025Z,17.98
2018-01-12T09:05:34.464Z,19.15
2018-01-12T09:08:04.706Z,19.02
2018-01-12T09:10:51.422Z,17.60
2018-01-12T09:13:30.813Z,19.70
2018-01-12T09:16:06.074Z,19.67
2018-01-12T09:18:45.604Z,17.33
2018-01-12T09:21:25.499Z,16.97
2018-01-12T09:23:57.051Z,18.95
2018-01-12T09:26:31.385Z,20.05
2018-01-12T09:29:04.719Z,18.73
2018-01-12T09:31:40.542Z,21.20
2018-01-12T09:34:21.053Z,19.95
2018-01-12T09:36:53.829Z,17.75
2018-01-12T09:40:03.883Z,18.80
2018-01-12T09:42:35.840Z,18.40
2018-01-12T09:45:10.229Z,18.20
2018-01-12T09:47:43.763Z,21.60
2018-01-12T09:50:15.966Z,18.75
2018-01-12T09:52:49.527Z,21.25
2018-01-12T09:55:21.393Z,17.02
2018-01-12T09:57:53.521Z,19.80
2018-01-12T10:00:28.739Z,19.52
2018-01-12T10:02:59.515Z,18.77
2018-01-12T10:05:30.443Z,17.48
2018-01-12T10:08:07.270Z,18.42
2018-01-12T10:10:38.500Z,17.60
2018-01-12T10:13:11.391Z,20.50
2018-01-12T10:15:41.898Z,18.50
2018-01-12T10:18:14.755Z,22.08
2018-01-12T10:20:59.645Z,20.37
2018-01-12T10:23:33.317Z,23.20
2018-01-12T10:26:05.246Z,19.25
2018-01-12T10:32:04.092Z,21.80
2018-01-12T10:34:44.010Z,18.03
2018-01-12T10:37:15.405Z,20.10
2018-01-12T10:39:55.826Z,22.83
2018-01-12T10:42:28.402Z,24.17
2018-01-12T10:44:59.734Z,22.40
2018-01-12T10:47:43.387Z,23.23
2018-01-12T10:50:25.641Z,20.05
2018-01-12T10:52:56.698Z,23.17
2018-01-12T10:55:29.410Z,22.02
2018-01-12T10:59:04.433Z,21.75
2018-01-12T11:01:39.329Z,19.90
2018-01-12T11:04:15.300Z,18.73
2018-01-12T11:06:48.828Z,18.95
2018-01-12T11:09:23.297Z,24.65
2018-01-12T11:11:59.140Z,21.98
2018-01-12T11:14:37.301Z,22.95
2018-01-12T11:17:10.170Z,18.37
2018-01-12T11:19:53.451Z,22.63
2018-01-12T11:22:28.733Z,22.42
2018-01-12T11:25:03.184Z,20.23
2018-01-12T11:27:36.962Z,23.92
2018-01-12T11:30:10.520Z,20.53
2018-01-12T11:32:43.091Z,20.92
2018-01-12T11:38:31.758Z,21.42
2018-01-12T11:41:07.611Z,23.38
2018-01-12T11:43:46.357Z,22.55
2018-01-12T11:49:03.923Z,19.60
2018-01-12T11:51:36.869Z,25.15
2018-01-12T11:57:41.708Z,22.00
2018-01-12T12:00:13.593Z,20.00
2018-01-12T12:02:46.370Z,20.47
2018-01-12T12:05:24.408Z,19.80
2018-01-12T12:07:58.937Z,18.90
2018-01-12T12:10:41.271Z,20.12
2018-01-12T12:13:34.803Z,20.25
2018-01-12T12:16:32.438Z,18.83
2018-01-12T12:19:03.180Z,20.73
2018-01-12T12:21:33.924Z,21.37
2018-01-12T12:24:04.695Z,17.60
2018-01-12T12:26:36.660Z,19.50
2018-01-12T12:29:07.768Z,21.80
2018-01-12T12:34:09.756Z,21.10
2018-01-12T12:36:42.118Z,19.40
2018-01-12T12:39:14.671Z,17.00
2018-01-12T12:41:47.792Z,19.48
2018-01-12T12:44:18.873Z,18.42
2018-01-12T12:46:49.676Z,15.80
2018-01-12T12:49:22.224Z,16.00
2018-01-12T12:51:55.551Z,17.27
2018-01-12T12:54:28.089Z,16.62
2018-01-12T12:57:00.629Z,14.75
2018-01-12T12:59:31.411Z,19.33
2018-01-12T13:02:04.627Z,17.00
2018-01-12T13:08:09.371Z,15.57
2018-01-12T13:10:40.036Z,18.12
2018-01-12T13:13:13.378Z,19.00
2018-01-12T13:15:45.858Z,16.83
2018-01-12T13:18:19.721Z,15.43
2018-01-12T13:20:50.400Z,17.37
2018-01-12T13:23:25.177Z,19.70
2018-01-12T13:26:39.929Z,17.12
2018-01-12T13:29:24.116Z,15.60
2018-01-12T13:32:23.740Z,17.27
2018-01-12T13:35:00.937Z,22.80
2018-01-12T13:38:17.113Z,23.85
2018-01-12T13:40:54.264Z,19.48
2018-01-12T13:43:25.404Z,19.50
2018-01-12T13:45:58.392Z,21.03
2018-01-12T13:48:30.675Z,27.55
2018-01-12T13:51:34.721Z,18.00
2018-01-12T13:54:06.585Z,19.87
2018-01-12T13:56:37.693Z,20.90
2018-01-12T13:59:09.180Z,17.60
2018-01-12T14:01:42.055Z,21.62
2018-01-12T14:04:12.835Z,20.00
2018-01-12T14:06:53.325Z,22.13
2018-01-12T14:09:28.951Z,19.67
2018-01-12T14:12:44.793Z,21.63
2018-01-12T14:15:38.325Z,24.08
2018-01-12T14:18:09.182Z,20.27
2018-01-12T14:20:40.805Z,21.67
2018-01-12T14:23:11.180Z,20.65
2018-01-12T14:25:42.069Z,20.87
2018-01-12T14:28:15.031Z,22.30
2018-01-12T14:30:45.884Z,22.58
2018-01-12T14:33:16.868Z,20.23
2018-01-12T14:35:48.799Z,23.50
2018-01-12T14:38:28.162Z,20.75
2018-01-12T14:40:59.683Z,25.23
2018-01-12T14:43:36.953Z,21.12
2018-01-12T14:46:08.613Z,20.17
2018-01-12T14:48:40.892Z,23.90
2018-01-12T14:58:04.058Z,24.27
2018-01-12T15:00:36.314Z,25.65
2018-01-12T15:03:11.439Z,24.17
2018-01-12T15:05:42.613Z,21.85
2018-01-12T15:08:14.380Z,21.62
2018-01-12T15:10:46.448Z,22.75
2018-01-12T15:13:26.257Z,25.00
2018-01-12T15:16:01.786Z,22.98
2018-01-12T15:18:34.483Z,21.17
2018-01-12T15:21:06.144Z,24.52
2018-01-12T15:24:01.010Z,24.33
2018-01-12T15:26:48.040Z,23.87
2018-01-12T15:29:19.368Z,20.52
2018-01-12T15:31:51.302Z,27.27
2018-01-12T15:34:21.836Z,23.08
2018-01-12T15:36:53.457Z,23.92
2018-01-12T15:39:28.267Z,28.17
2018-01-12T15:42:00.098Z,23.05
2018-01-12T15:44:31.622Z,23.80
2018-01-12T15:47:04.161Z,25.58
2018-01-12T15:49:35.452Z,25.15
2018-01-12T15:52:08.449Z,24.30
2018-01-12T15:54:46.602Z,22.25
2018-01-12T15:57:21.836Z,24.02
2018-01-12T15:59:56.854Z,24.83
2018-01-12T16:02:30.779Z,23.55
2018-01-12T16:06:08.828Z,23.67
2018-01-12T16:08:40.595Z,22.70
2018-01-12T16:11:12.328Z,23.20
2018-01-12T16:20:59.883Z,29.08
2018-01-12T16:23:30.627Z,28.38
2018-01-12T16:26:06.265Z,25.10
2018-01-12T16:28:38.429Z,27.83
2018-01-12T16:31:17.117Z,25.80
2018-01-12T16:34:13.209Z,28.83
2018-01-12T16:36:47.631Z,26.10
2018-01-12T16:39:27.452Z,28.42
2018-01-12T16:42:00.803Z,33.50
2018-01-12T16:44:33.187Z,32.77
2018-01-12T16:47:16.590Z,33.55
2018-01-12T16:49:55.891Z,31.45
2018-01-12T16:52:31.318Z,32.00
2018-01-12T16:55:04.012Z,31.10
2018-01-12T16:57:41.979Z,33.30
2018-01-12T17:00:15.750Z,32.37
2018-01-12T17:02:47.289Z,32.63
2018-01-12T17:05:29.170Z,33.13
2018-01-12T17:08:28.514Z,35.55
2018-01-12T17:11:03.727Z,33.88
2018-01-12T17:13:35.475Z,35.00
2018-01-12T17:16:06.827Z,30.52
2018-01-12T17:18:38.531Z,33.30
2018-01-12T17:21:09.875Z,32.45
2018-01-12T17:23:44.948Z,30.25
2018-01-12T17:26:20.696Z,40.00
2018-01-12T17:28:54.700Z,30.60
2018-01-12T17:31:27.637Z,34.05
2018-01-12T17:34:00.738Z,32.50
2018-01-12T17:36:31.160Z,39.78
2018-01-12T17:39:17.674Z,30.80
2018-01-12T17:41:49.003Z,32.83
2018-01-12T17:44:22.707Z,31.90
2018-01-12T17:46:55.864Z,32.75
2018-01-12T17:49:29.905Z,33.60
2018-01-12T17:52:01.669Z,32.92
2018-01-12T17:54:32.439Z,32.33
2018-01-12T17:57:04.000Z,30.90
2018-01-12T17:59:34.315Z,31.98
2018-01-12T18:02:06.202Z,37.40
2018-01-12T18:04:37.471Z,31.10
2018-01-12T18:07:09.392Z,34.33
2018-01-12T18:09:45.946Z,32.90
2018-01-12T18:12:16.970Z,30.80
2018-01-12T18:14:47.588Z,33.72
2018-01-12T18:17:19.115Z,34.65
2018-01-12T18:19:51.273Z,32.20
2018-01-12T18:22:22.248Z,32.30
2018-01-12T18:24:56.450Z,35.00
2018-01-12T18:27:34.705Z,34.15
2018-01-12T18:30:09.044Z,33.53
2018-01-12T18:32:40.657Z,35.80
2018-01-12T18:35:11.490Z,36.90
2018-01-12T18:37:43.639Z,37.92
2018-01-12T18:40:15.143Z,36.23
2018-01-12T18:42:45.643Z,35.13
2018-01-12T18:45:17.421Z,38.80
2018-01-12T18:47:49.843Z,32.33
2018-01-12T18:50:21.388Z,37.67
2018-01-12T18:52:52.098Z,33.70
2018-01-12T18:55:22.596Z,35.25
2018-01-12T18:57:53.597Z,43.73
2018-01-12T19:00:25.180Z,33.95
2018-01-12T19:02:56.121Z,34.03
2018-01-12T19:05:28.021Z,37.27
2018-01-12T19:07:58.429Z,34.83
2018-01-12T19:10:30.166Z,32.28
2018-01-12T19:13:01.148Z,37.22
2018-01-12T19:15:32.232Z,38.80
2018-01-12T19:18:02.952Z,41.25
2018-01-12T19:20:34.354Z,41.90
2018-01-12T19:23:05.294Z,44.33
2018-01-12T19:25:46.507Z,44.35
2018-01-12T19:28:18.337Z,43.17
2018-01-12T19:30:49.041Z,43.22
2018-01-12T19:33:20.237Z,49.05
2018-01-12T19:35:51.615Z,41.90
2018-01-12T19:38:21.993Z,37.90
2018-01-12T19:40:52.369Z,34.90
2018-01-12T19:43:23.327Z,38.95
2018-01-12T19:45:54.415Z,38.65
2018-01-12T19:48:25.726Z,40.60
2018-01-12T19:50:58.395Z,35.75
2018-01-12T19:53:28.711Z,40.30
2018-01-12T19:55:59.699Z,36.38
2018-01-12T19:58:30.999Z,39.00
2018-01-12T20:01:02.253Z,37.83
2018-01-12T20:03:33.455Z,39.75
2018-01-12T20:06:04.425Z,39.35
2018-01-12T20:08:35.142Z,38.33
2018-01-12T20:11:06.139Z,38.17
2018-01-12T20:13:36.891Z,39.78
2018-01-12T20:16:08.143Z,39.53
2018-01-12T20:18:40.147Z,40.35
2018-01-12T20:21:12.383Z,44.67
2018-01-12T20:23:48.541Z,42.47
2018-01-12T20:26:24.496Z,41.05
2018-01-12T20:29:04.578Z,39.90
2018-01-12T20:31:36.032Z,38.72
2018-01-12T20:34:10.915Z,33.35
2018-01-12T20:36:41.597Z,37.35
2018-01-12T20:39:13.463Z,38.73
2018-01-12T20:41:46.083Z,38.33
2018-01-12T20:44:17.376Z,40.12
2018-01-12T20:46:54.125Z,41.30
2018-01-12T20:49:29.770Z,42.95
2018-01-12T20:54:18.899Z,40.63
2018-01-12T20:56:49.735Z,41.47
2018-01-12T20:59:39.617Z,44.57
2018-01-12T21:02:45.887Z,41.90
2018-01-12T21:05:18.508Z,43.33
2018-01-12T21:08:07.063Z,45.85
2018-01-12T21:10:41.275Z,47.20
2018-01-12T21:13:15.897Z,45.17
2018-01-12T21:15:49.694Z,45.00
2018-01-12T21:18:20.709Z,49.10
2018-01-12T21:20:54.496Z,41.80
2018-01-12T21:23:25.395Z,48.60
2018-01-12T21:25:58.676Z,45.58
2018-01-12T21:28:29.662Z,51.23
2018-01-12T21:31:01.161Z,47.08
2018-01-12T21:33:31.940Z,50.10
2018-01-12T21:36:03.298Z,51.03
2018-01-12T21:38:36.205Z,49.63
2018-01-12T21:41:08.070Z,50.60
2018-01-12T21:43:38.785Z,50.53
2018-01-12T21:46:10.016Z,49.40
2018-01-12T21:48:41.158Z,45.33
2018-01-12T21:51:11.913Z,48.97
2018-01-12T21:53:43.041Z,47.10
2018-01-12T21:56:13.777Z,51.08
2018-01-12T21:58:47.257Z,46.85
2018-01-12T22:01:19.162Z,45.92
2018-01-12T22:03:51.886Z,42.10
2018-01-12T22:06:26.852Z,50.53
2018-01-12T22:08:57.227Z,47.70
2018-01-12T22:11:27.588Z,48.55
2018-01-12T22:13:58.365Z,44.50
2018-01-12T22:16:29.001Z,47.97
2018-01-12T22:19:01.327Z,47.42
2018-01-12T22:21:32.266Z,49.53
2018-01-12T22:24:03.176Z,48.13
2018-01-12T22:26:35.374Z,55.70
2018-01-12T22:29:07.681Z,47.83
2018-01-12T22:31:40.026Z,52.10
2018-01-12T22:34:10.493Z,49.28
2018-01-12T22:36:40.828Z,50.90
2018-01-12T22:39:11.553Z,53.45
2018-01-12T22:41:43.087Z,54.03
2018-01-12T22:44:14.922Z,50.85
2018-01-12T22:46:45.449Z,49.88
2018-01-12T22:49:15.711Z,51.95
2018-01-12T22:51:46.351Z,57.57
2018-01-12T22:54:16.694Z,50.83
2018-01-12T22:56:46.971Z,53.28
2018-01-12T22:59:17.988Z,53.13
2018-01-12T23:01:48.552Z,58.43
2018-01-12T23:04:18.919Z,52.08
2018-01-12T23:06:50.489Z,51.05
2018-01-12T23:09:22.042Z,47.22
2018-01-12T23:11:55.469Z,48.22
2018-01-12T23:14:27.895Z,45.22
2018-01-12T23:16:58.400Z,48.72
2018-01-12T23:19:29.881Z,49.42
2018-01-12T23:22:00.408Z,52.08
2018-01-12T23:24:33.574Z,52.67
2018-01-12T23:27:04.506Z,51.67
2018-01-12T23:29:35.979Z,50.17
2018-01-12T23:32:07.074Z,47.22
2018-01-12T23:34:39.506Z,46.22
2018-01-12T23:37:11.423Z,41.45
2018-01-12T23:39:42.553Z,39.72
2018-01-12T23:42:13.153Z,42.00
2018-01-12T23:44:44.278Z,37.70
2018-01-12T23:47:14.836Z,39.40
2018-01-12T23:49:45.164Z,32.95
2018-01-12T23:52:15.516Z,32.50
2018-01-12T23:54:45.869Z,33.65
2018-01-12T23:57:16.040Z,30.83
2018-01-12T23:59:46.275Z,33.88
